createdAt,value
2023-02-03T00:17:22.822Z,101332.75
2023-02-03T00:47:26.078Z,101299.75
2023-02-03T01:17:29.377Z,101198.37
2023-02-03T01:47:32.227Z,101202.17
2023-02-03T02:17:35.831Z,101142.76
2023-02-03T02:47:38.833Z,101048.06
2023-02-03T03:17:42.278Z,101008.61
2023-02-03T03:47:45.099Z,100955.73
2023-02-03T04:17:49.451Z,100891.86
2023-02-03T04:47:54.306Z,100840.83
2023-02-03T05:17:59.322Z,100783.66
2023-02-03T05:48:02.161Z,100706.05
2023-02-03T06:18:05.484Z,100666.19
2023-02-03T06:48:08.520Z,100567.03
2023-02-03T07:18:15.020Z,100465.35
2023-02-03T07:48:20.959Z,100378.88
2023-02-03T08:18:24.617Z,100297.51
2023-02-03T08:48:27.912Z,100188.72
2023-02-03T09:18:31.163Z,100116.73
2023-02-03T09:48:34.464Z,99994.22
2023-02-03T10:18:38.487Z,99853.59
2023-02-03T10:48:41.743Z,99760.06
2023-02-03T11:18:45.882Z,99650.09
2023-02-03T11:48:49.473Z,99573.47
2023-02-03T12:18:52.602Z,99574.23
2023-02-03T12:48:55.959Z,99526.97
2023-02-03T13:18:59.447Z,99576.16
2023-02-03T13:49:02.769Z,99627.31
2023-02-03T14:19:07.229Z,99620.86
2023-02-03T14:49:10.815Z,99625.88
2023-02-03T15:19:13.991Z,99677.63
2023-02-03T15:49:18.283Z,99746.45
2023-02-03T16:19:21.975Z,99737.03
2023-02-03T16:49:24.988Z,99761.84
2023-02-03T17:19:29.351Z,99763.47
2023-02-03T18:19:56.174Z,99824.70
2023-02-03T18:49:59.352Z,99836.61
2023-02-03T19:20:02.848Z,99839.03
2023-02-03T19:50:05.690Z,99873.48
2023-02-03T20:20:10.444Z,99888.14
2023-02-03T20:50:14.210Z,99886.92
2023-02-03T21:20:19.475Z,99939.88
2023-02-03T21:50:22.370Z,99950.80
2023-02-03T22:20:28.621Z,99986.25
2023-02-03T22:50:35.936Z,100036.20
2023-02-03T23:20:40.083Z,100110.23
2023-02-03T23:50:44.859Z,100348.38
